createdAt,value
2018-11-02T00:02:35.162Z,24.53
2018-11-02T00:05:04.602Z,24.87
2018-11-02T00:07:44.332Z,25.40
2018-11-02T00:10:24.844Z,25.90
2018-11-02T00:13:06.962Z,26.47
2018-11-02T00:15:45.562Z,25.40
2018-11-02T00:18:26.252Z,26.60
2018-11-02T00:21:07.442Z,26.60
2018-11-02T00:23:48.067Z,26.30
2018-11-02T00:27:57.452Z,26.60
2018-11-02T00:30:39.145Z,26.90
2018-11-02T00:33:19.560Z,28.13
2018-11-02T00:35:59.675Z,27.80
2018-11-02T00:38:42.340Z,27.67
2018-11-02T00:41:25.832Z,27.83
2018-11-02T00:44:08.181Z,27.77
2018-11-02T00:46:51.886Z,26.93
2018-11-02T00:49:33.052Z,27.73
2018-11-02T00:52:12.720Z,26.90
2018-11-02T00:54:55.982Z,28.47
2018-11-02T00:57:36.426Z,27.17
2018-11-02T01:00:20.993Z,28.03
2018-11-02T01:03:03.146Z,28.20
2018-11-02T01:05:44.615Z,26.90
2018-11-02T01:08:25.691Z,27.97
2018-11-02T01:11:05.276Z,28.13
2018-11-02T01:13:47.155Z,28.17
2018-11-02T01:16:27.624Z,27.80
2018-11-02T01:19:10.363Z,28.77
2018-11-02T01:21:52.513Z,29.23
2018-11-02T01:24:33.722Z,28.20
2018-11-02T01:27:13.756Z,28.07
2018-11-02T01:29:57.710Z,29.00
2018-11-02T01:32:40.109Z,27.23
2018-11-02T01:35:20.601Z,26.47
2018-11-02T01:38:03.737Z,27.00
2018-11-02T01:40:43.893Z,27.53
2018-11-02T01:43:28.666Z,27.00
2018-11-02T01:46:09.481Z,26.97
2018-11-02T01:48:52.308Z,27.37
2018-11-02T01:51:34.064Z,26.63
2018-11-02T01:54:14.121Z,26.00
2018-11-02T01:56:54.118Z,26.23
2018-11-02T01:59:34.147Z,25.90
2018-11-02T02:02:18.972Z,25.77
2018-11-02T02:04:56.467Z,26.80
2018-11-02T02:07:39.323Z,25.33
2018-11-02T02:10:19.520Z,25.63
2018-11-02T02:13:01.209Z,26.23
2018-11-02T02:15:45.565Z,25.13
2018-11-02T02:18:30.319Z,25.57
2018-11-02T02:21:13.507Z,26.33
2018-11-02T02:23:53.713Z,26.07
2018-11-02T02:26:35.784Z,24.80
2018-11-02T02:29:18.701Z,24.90
2018-11-02T02:32:00.062Z,25.90
2018-11-02T02:34:40.039Z,24.90
2018-11-02T02:37:20.724Z,24.97
2018-11-02T02:40:00.689Z,25.00
2018-11-02T02:42:42.583Z,24.10
2018-11-02T02:45:24.147Z,23.13
2018-11-02T02:48:04.880Z,23.00
2018-11-02T02:50:50.003Z,22.83
2018-11-02T02:53:31.445Z,23.57
2018-11-02T02:56:12.158Z,23.50
2018-11-02T02:58:54.971Z,23.23
2018-11-02T03:01:35.331Z,23.33
2018-11-02T03:04:04.728Z,22.53
2018-11-02T03:06:45.040Z,24.23
2018-11-02T03:09:27.562Z,23.57
2018-11-02T03:12:07.581Z,23.47
2018-11-02T03:14:48.019Z,23.27
2018-11-02T03:17:28.660Z,23.03
2018-11-02T03:20:09.980Z,22.70
2018-11-02T03:22:52.012Z,22.97
2018-11-02T03:25:32.481Z,22.50
2018-11-02T03:28:15.395Z,22.93
2018-11-02T03:30:57.264Z,22.47
2018-11-02T03:33:38.753Z,22.13
2018-11-02T03:36:22.595Z,21.23
2018-11-02T03:39:04.837Z,21.63
2018-11-02T03:41:48.184Z,21.33
2018-11-02T03:44:28.791Z,22.63
2018-11-02T03:47:10.809Z,22.27
2018-11-02T03:49:53.375Z,21.57
2018-11-02T03:52:36.061Z,22.17
2018-11-02T03:55:16.680Z,20.07
2018-11-02T03:58:01.943Z,21.40
2018-11-02T04:00:47.509Z,20.13
2018-11-02T04:03:16.718Z,20.40
2018-11-02T04:05:58.893Z,20.90
2018-11-02T04:08:40.386Z,20.03
2018-11-02T04:11:17.632Z,19.80
2018-11-02T04:13:59.996Z,20.80
2018-11-02T04:16:43.140Z,20.93
2018-11-02T04:19:18.884Z,19.63
2018-11-02T04:21:58.272Z,20.83
2018-11-02T04:24:42.227Z,20.40
2018-11-02T04:27:19.393Z,20.63
2018-11-02T04:30:01.144Z,19.77
2018-11-02T04:32:42.202Z,21.43
2018-11-02T04:35:28.388Z,20.30
2018-11-02T04:38:07.653Z,20.33
2018-11-02T04:40:46.868Z,19.83
2018-11-02T04:43:27.588Z,20.60
2018-11-02T04:46:08.999Z,19.20
2018-11-02T04:48:51.443Z,19.93
2018-11-02T04:51:33.357Z,20.27
2018-11-02T04:54:15.372Z,20.80
2018-11-02T04:57:00.587Z,20.03
2018-11-02T04:59:41.278Z,19.80
2018-11-02T05:02:24.767Z,19.63
2018-11-02T05:05:06.887Z,19.93
2018-11-02T05:07:53.024Z,19.33
2018-11-02T05:10:34.064Z,20.90
2018-11-02T05:13:15.133Z,18.03
2018-11-02T05:15:58.595Z,19.30
2018-11-02T05:18:40.068Z,19.60
2018-11-02T05:21:18.664Z,18.77
2018-11-02T05:23:58.918Z,18.20
2018-11-02T05:26:41.188Z,19.67
2018-11-02T05:29:21.882Z,19.47
2018-11-02T05:32:03.667Z,19.17
2018-11-02T05:34:45.455Z,18.97
2018-11-02T05:37:30.222Z,19.07
2018-11-02T05:40:12.239Z,18.53
2018-11-02T05:42:54.452Z,18.87
2018-11-02T05:45:35.941Z,20.10
2018-11-02T05:48:19.581Z,19.10
2018-11-02T05:51:00.971Z,20.60
2018-11-02T05:53:38.270Z,20.03
2018-11-02T05:56:19.206Z,19.27
2018-11-02T05:58:58.420Z,19.90
2018-11-02T06:01:27.271Z,20.03
2018-11-02T06:04:06.703Z,19.30
2018-11-02T06:06:48.720Z,19.37
2018-11-02T06:09:30.737Z,20.33
2018-11-02T06:12:11.032Z,20.77
2018-11-02T06:14:53.491Z,21.77
2018-11-02T06:17:34.732Z,20.67
2018-11-02T06:20:17.770Z,20.93
2018-11-02T06:22:55.687Z,20.63
2018-11-02T06:25:24.531Z,21.23
2018-11-02T06:28:07.700Z,20.90
2018-11-02T06:30:50.971Z,19.90
2018-11-02T06:33:33.878Z,23.00
2018-11-02T06:36:16.342Z,20.53
2018-11-02T06:38:59.034Z,23.80
2018-11-02T06:41:42.389Z,21.60
2018-11-02T06:44:22.961Z,22.07
2018-11-02T06:47:04.451Z,22.67
2018-11-02T06:49:48.949Z,23.47
2018-11-02T06:52:28.297Z,22.93
2018-11-02T06:55:08.348Z,23.53
2018-11-02T06:57:49.815Z,23.13
2018-11-02T07:00:26.969Z,23.07
2018-11-02T07:02:59.711Z,24.03
2018-11-02T07:05:41.843Z,24.53
2018-11-02T07:08:23.859Z,23.67
2018-11-02T07:11:07.869Z,24.00
2018-11-02T07:13:51.382Z,24.20
2018-11-02T07:16:35.562Z,22.73
2018-11-02T07:19:15.642Z,25.40
2018-11-02T07:21:53.979Z,24.87
2018-11-02T07:24:29.194Z,23.03
2018-11-02T07:27:09.636Z,23.60
2018-11-02T07:29:49.150Z,22.23
2018-11-02T07:32:18.589Z,23.80
2018-11-02T07:35:00.232Z,22.17
2018-11-02T07:37:40.372Z,22.87
2018-11-02T07:40:21.789Z,23.03
2018-11-02T07:43:03.019Z,23.23
2018-11-02T07:45:43.058Z,21.73
2018-11-02T07:48:22.962Z,20.97
2018-11-02T07:51:04.388Z,21.90
2018-11-02T07:53:45.823Z,20.87
2018-11-02T07:56:27.309Z,20.60
2018-11-02T07:59:08.100Z,20.70
2018-11-02T08:01:48.849Z,20.07
2018-11-02T08:04:25.033Z,21.57
2018-11-02T08:07:04.036Z,20.60
2018-11-02T08:09:43.462Z,19.57
2018-11-02T08:12:22.679Z,20.03
2018-11-02T08:15:06.543Z,21.37
2018-11-02T08:17:46.172Z,20.93
2018-11-02T08:20:28.424Z,20.80
2018-11-02T08:23:08.515Z,21.57
2018-11-02T08:25:43.030Z,21.33
2018-11-02T08:28:22.335Z,21.53
2018-11-02T08:31:04.101Z,22.37
2018-11-02T08:33:42.928Z,21.33
2018-11-02T08:36:24.452Z,21.07
2018-11-02T08:39:07.112Z,22.60
2018-11-02T08:41:46.527Z,21.97
2018-11-02T08:44:23.696Z,20.67
2018-11-02T08:47:06.237Z,22.13
2018-11-02T08:49:47.143Z,21.83
2018-11-02T08:52:27.867Z,20.53
2018-11-02T08:55:11.303Z,21.80
2018-11-02T08:57:52.826Z,22.53
2018-11-02T09:00:34.284Z,22.90
2018-11-02T09:03:14.424Z,23.27
2018-11-02T09:05:54.691Z,23.50
2018-11-02T09:08:34.383Z,23.07
2018-11-02T09:11:18.373Z,23.53
2018-11-02T09:13:57.088Z,22.57
2018-11-02T09:16:38.280Z,23.07
2018-11-02T09:19:19.355Z,24.87
2018-11-02T09:22:00.185Z,24.30
2018-11-02T09:24:46.301Z,23.90
2018-11-02T09:27:26.628Z,24.30
2018-11-02T09:30:08.507Z,24.73
2018-11-02T09:32:51.322Z,24.07
2018-11-02T09:35:32.487Z,25.27
2018-11-02T09:38:13.751Z,24.53
2018-11-02T09:40:53.964Z,25.23
2018-11-02T09:43:34.787Z,23.73
2018-11-02T09:46:15.723Z,24.73
2018-11-02T09:48:54.989Z,25.30
2018-11-02T09:51:36.724Z,24.13
2018-11-02T09:54:18.776Z,25.17
2018-11-02T09:57:00.562Z,25.57
2018-11-02T09:59:42.553Z,25.03
2018-11-02T10:02:23.269Z,24.80
2018-11-02T10:04:52.583Z,26.40
2018-11-02T10:07:31.127Z,26.10
2018-11-02T10:10:13.540Z,25.63
2018-11-02T10:12:56.430Z,24.93
2018-11-02T10:15:36.449Z,25.57
2018-11-02T10:18:17.539Z,27.40
2018-11-02T10:20:59.204Z,25.80
2018-11-02T10:23:40.354Z,25.47
2018-11-02T10:26:22.511Z,25.33
2018-11-02T10:29:04.650Z,25.77
2018-11-02T10:31:44.992Z,25.97
2018-11-02T10:34:26.482Z,25.27
2018-11-02T10:37:10.370Z,25.67
2018-11-02T10:39:50.238Z,26.07
2018-11-02T10:42:31.620Z,26.13
2018-11-02T10:45:11.695Z,26.27
2018-11-02T10:47:51.317Z,24.23
2018-11-02T10:50:32.236Z,24.57
2018-11-02T10:53:12.312Z,22.93
2018-11-02T10:55:53.587Z,24.47
2018-11-02T10:58:33.772Z,23.93
2018-11-02T11:01:17.483Z,24.57
2018-11-02T11:03:46.995Z,23.53
2018-11-02T11:06:29.500Z,23.50
2018-11-02T11:09:12.560Z,22.17
2018-11-02T11:11:54.367Z,22.53
2018-11-02T11:14:35.148Z,21.80
2018-11-02T11:17:13.126Z,19.10
2018-11-02T11:19:52.457Z,19.67
2018-11-02T11:22:32.891Z,19.30
2018-11-02T11:25:18.277Z,19.87
2018-11-02T11:27:59.079Z,20.10
2018-11-02T11:30:35.742Z,18.30
2018-11-02T11:33:16.001Z,18.97
2018-11-02T11:35:56.114Z,19.50
2018-11-02T11:38:36.629Z,18.47
2018-11-02T11:41:17.845Z,18.60
2018-11-02T11:43:58.711Z,19.30
2018-11-02T11:46:39.802Z,18.10
2018-11-02T11:49:21.492Z,17.63
2018-11-02T11:51:59.549Z,17.90
2018-11-02T11:54:43.902Z,19.13
2018-11-02T11:57:24.622Z,19.00
2018-11-02T12:00:03.232Z,18.80
2018-11-02T12:02:45.398Z,17.97
2018-11-02T12:05:29.809Z,18.87
2018-11-02T12:08:12.804Z,18.27
2018-11-02T12:10:53.215Z,19.57
2018-11-02T12:13:34.030Z,19.30
2018-11-02T12:16:16.673Z,19.00
2018-11-02T12:18:55.542Z,18.20
2018-11-02T12:21:40.651Z,17.20
2018-11-02T12:24:24.294Z,19.23
2018-11-02T12:27:06.166Z,19.20
2018-11-02T12:29:47.751Z,17.63
2018-11-02T12:32:34.693Z,18.13
2018-11-02T12:35:19.932Z,17.90
2018-11-02T12:38:00.699Z,17.57
2018-11-02T12:40:42.537Z,18.47
2018-11-02T12:43:24.587Z,18.03
2018-11-02T12:46:06.518Z,17.03
2018-11-02T12:48:50.341Z,17.13
2018-11-02T12:51:30.258Z,17.43
2018-11-02T12:54:14.092Z,17.80
2018-11-02T12:56:57.480Z,17.07
2018-11-02T12:59:39.721Z,16.50
2018-11-02T13:02:19.887Z,16.80
2018-11-02T13:04:59.304Z,17.13
2018-11-02T13:07:40.744Z,16.30
2018-11-02T13:10:28.185Z,16.20
2018-11-02T13:13:10.775Z,16.63
2018-11-02T13:15:53.244Z,16.03
2018-11-02T13:18:34.546Z,15.37
2018-11-02T13:21:22.408Z,15.50
2018-11-02T13:24:00.642Z,15.20
2018-11-02T13:26:41.653Z,15.20
2018-11-02T13:29:20.217Z,16.80
2018-11-02T13:32:02.735Z,15.53
2018-11-02T13:34:43.900Z,15.33
2018-11-02T13:37:23.472Z,14.33
2018-11-02T13:40:06.055Z,15.73
2018-11-02T13:42:47.769Z,14.93
2018-11-02T13:45:29.086Z,15.03
2018-11-02T13:48:12.132Z,15.07
2018-11-02T13:50:54.092Z,16.87
2018-11-02T13:53:35.637Z,15.67
2018-11-02T13:56:16.049Z,15.43
2018-11-02T13:58:59.090Z,16.43
2018-11-02T14:01:40.031Z,15.93
2018-11-02T14:04:09.906Z,15.70
2018-11-02T14:06:43.843Z,16.37
2018-11-02T14:09:27.104Z,16.17
2018-11-02T14:12:06.798Z,16.07
2018-11-02T14:14:38.042Z,15.93
2018-11-02T14:17:13.318Z,14.97
2018-11-02T14:19:56.189Z,15.67
2018-11-02T14:22:28.368Z,16.37
2018-11-02T14:25:00.088Z,15.73
2018-11-02T14:27:39.288Z,16.17
2018-11-02T14:30:21.603Z,16.50
2018-11-02T14:33:00.944Z,17.30
2018-11-02T14:35:38.009Z,15.13
2018-11-02T14:38:15.870Z,16.53
2018-11-02T14:40:55.673Z,16.67
2018-11-02T14:43:37.361Z,16.87
2018-11-02T14:46:16.572Z,16.37
2018-11-02T14:48:59.068Z,16.30
2018-11-02T14:51:40.254Z,17.10
2018-11-02T14:54:18.073Z,17.83
2018-11-02T14:56:59.535Z,16.90
2018-11-02T14:59:37.600Z,17.33
2018-11-02T15:02:16.251Z,16.77
2018-11-02T15:04:45.974Z,17.73
2018-11-02T15:07:24.803Z,17.37
2018-11-02T15:10:08.440Z,18.90
2018-11-02T15:12:50.876Z,17.20
2018-11-02T15:15:31.012Z,17.60
2018-11-02T15:18:12.053Z,17.00
2018-11-02T15:20:54.610Z,18.00
2018-11-02T15:23:29.503Z,17.47
2018-11-02T15:26:03.621Z,16.67
2018-11-02T15:28:35.113Z,17.50
2018-11-02T15:31:13.763Z,17.00
2018-11-02T15:33:53.530Z,17.10
2018-11-02T15:36:24.342Z,17.53
2018-11-02T15:39:02.733Z,18.47
2018-11-02T15:41:40.179Z,16.60
2018-11-02T15:44:18.847Z,17.50
2018-11-02T15:46:56.862Z,18.73
2018-11-02T15:49:35.827Z,17.60
2018-11-02T15:52:14.942Z,17.67
2018-11-02T15:54:47.811Z,17.97
2018-11-02T15:57:30.232Z,17.27
2018-11-02T16:00:08.623Z,17.73
2018-11-02T16:02:47.428Z,18.40
2018-11-02T16:05:27.084Z,18.23
2018-11-02T16:08:01.336Z,18.40
2018-11-02T16:10:38.841Z,17.80
2018-11-02T16:13:15.765Z,18.30
2018-11-02T16:15:53.481Z,18.87
2018-11-02T16:18:31.975Z,17.97
2018-11-02T16:21:13.693Z,19.17
2018-11-02T16:23:56.112Z,18.57
2018-11-02T16:26:32.688Z,19.10
2018-11-02T16:29:11.722Z,17.67
2018-11-02T16:31:51.640Z,18.30
2018-11-02T16:34:22.733Z,17.03
2018-11-02T16:37:01.743Z,17.10
2018-11-02T16:39:38.508Z,16.60
2018-11-02T16:42:12.965Z,15.83
2018-11-02T16:44:47.830Z,15.53
2018-11-02T16:47:28.709Z,16.40
2018-11-02T16:50:10.226Z,15.07
2018-11-02T16:52:49.387Z,14.70
2018-11-02T16:55:27.534Z,14.23
2018-11-02T16:58:06.870Z,13.20
2018-11-02T17:00:45.656Z,13.47
2018-11-02T17:03:15.082Z,12.97
2018-11-02T17:05:52.978Z,12.70
2018-11-02T17:08:30.810Z,12.73
2018-11-02T17:11:06.513Z,11.70
2018-11-02T17:13:45.120Z,11.27
2018-11-02T17:16:22.311Z,10.70
2018-11-02T17:19:01.453Z,11.47
2018-11-02T17:21:41.486Z,11.30
2018-11-02T17:24:19.109Z,10.50
2018-11-02T17:26:57.456Z,11.20
2018-11-02T17:29:35.741Z,10.50
2018-11-02T17:39:04.480Z,9.63
2018-11-02T17:41:42.140Z,9.67
2018-11-02T17:44:18.864Z,9.93
2018-11-02T17:46:52.993Z,9.23
2018-11-02T17:49:30.228Z,10.30
2018-11-02T17:52:07.517Z,9.37
2018-11-02T17:54:45.450Z,10.03
2018-11-02T17:57:23.141Z,9.77
2018-11-02T18:00:01.557Z,9.40
2018-11-02T18:02:36.649Z,9.17
2018-11-02T18:05:13.761Z,9.00
2018-11-02T18:07:48.410Z,9.40
2018-11-02T18:10:25.669Z,9.60
2018-11-02T18:13:09.425Z,9.67
2018-11-02T18:15:51.251Z,9.20
2018-11-02T18:18:31.050Z,8.97
2018-11-02T18:21:10.408Z,8.90
2018-11-02T18:23:50.041Z,9.60
2018-11-02T18:26:28.517Z,8.73
2018-11-02T18:29:03.219Z,8.77
2018-11-02T18:31:43.194Z,8.77
2018-11-02T18:34:14.303Z,8.63
2018-11-02T18:36:51.914Z,8.83
2018-11-02T18:39:29.022Z,8.23
2018-11-02T18:42:07.217Z,8.50
2018-11-02T18:44:42.389Z,8.53
2018-11-02T18:47:21.603Z,7.77
2018-11-02T18:49:55.580Z,8.00
2018-11-02T18:52:33.493Z,8.03
2018-11-02T18:55:12.989Z,7.97
2018-11-02T18:57:46.127Z,8.33
2018-11-02T19:00:23.044Z,8.07
2018-11-02T19:02:59.261Z,8.27
2018-11-02T19:05:34.612Z,7.57
2018-11-02T19:08:11.193Z,8.60
2018-11-02T19:10:49.561Z,8.20
2018-11-02T19:13:25.753Z,8.87
2018-11-02T19:16:03.940Z,8.60
2018-11-02T19:18:37.501Z,8.63
2018-11-02T19:21:11.414Z,8.03
2018-11-02T19:23:40.403Z,8.37
2018-11-02T19:26:14.541Z,8.87
2018-11-02T19:28:50.666Z,8.80
2018-11-02T19:31:27.734Z,8.13
2018-11-02T19:33:59.395Z,8.83
2018-11-02T19:36:36.573Z,8.80
2018-11-02T19:39:13.777Z,7.83
2018-11-02T19:41:48.332Z,8.33
2018-11-02T19:44:23.350Z,8.50
2018-11-02T19:46:57.997Z,8.43
2018-11-02T19:49:32.228Z,8.97
2018-11-02T19:52:08.363Z,8.97
2018-11-02T19:54:44.153Z,8.47
2018-11-02T19:57:18.707Z,8.93
2018-11-02T19:59:51.792Z,9.13
2018-11-02T20:02:27.475Z,9.20
2018-11-02T20:05:08.375Z,8.93
2018-11-02T20:07:48.008Z,8.83
2018-11-02T20:10:27.029Z,9.10
2018-11-02T20:13:08.408Z,8.80
2018-11-02T20:15:41.493Z,9.47
2018-11-02T20:18:17.913Z,10.20
2018-11-02T20:20:55.617Z,9.43
2018-11-02T20:23:35.354Z,9.00
2018-11-02T20:26:14.721Z,10.23
2018-11-02T20:28:55.815Z,10.50
2018-11-02T20:31:36.460Z,10.17
2018-11-02T20:34:18.038Z,9.57
2018-11-02T20:36:58.069Z,9.93
2018-11-02T20:39:36.529Z,10.50
2018-11-02T20:42:12.487Z,10.73
2018-11-02T20:44:46.701Z,10.43
2018-11-02T20:47:21.052Z,10.70
2018-11-02T20:49:57.779Z,10.70
2018-11-02T20:52:35.360Z,10.77
2018-11-02T20:55:09.290Z,10.33
2018-11-02T20:57:45.151Z,10.17
2018-11-02T21:00:21.034Z,10.47
2018-11-02T21:02:50.791Z,9.90
2018-11-02T21:05:26.852Z,9.67
2018-11-02T21:08:06.267Z,9.27
2018-11-02T21:10:39.078Z,9.73
2018-11-02T21:13:14.147Z,9.30
2018-11-02T21:15:46.533Z,9.37
2018-11-02T21:18:16.758Z,9.80
2018-11-02T21:20:51.099Z,9.10
2018-11-02T21:23:27.651Z,8.90
2018-11-02T21:26:01.975Z,9.30
2018-11-02T21:28:31.311Z,9.33
2018-11-02T21:31:05.591Z,8.50
2018-11-02T21:33:44.752Z,8.80
2018-11-02T21:36:25.947Z,8.57
2018-11-02T21:39:07.136Z,8.60
2018-11-02T21:41:45.777Z,9.30
2018-11-02T21:44:23.335Z,9.33
2018-11-02T21:47:01.265Z,8.93
2018-11-02T21:49:38.165Z,8.30
2018-11-02T21:52:14.847Z,8.10
2018-11-02T21:54:56.031Z,7.83
2018-11-02T21:57:30.379Z,7.73
2018-11-02T22:00:08.011Z,7.37
2018-11-02T22:02:46.830Z,6.80
2018-11-02T22:05:25.589Z,7.53
2018-11-02T22:07:58.344Z,7.30
2018-11-02T22:10:34.238Z,6.97
2018-11-02T22:13:12.091Z,6.83
2018-11-02T22:15:53.889Z,6.93
2018-11-02T22:18:33.338Z,6.73
2018-11-02T22:21:14.488Z,6.73
2018-11-02T22:23:48.832Z,7.20
2018-11-02T22:26:28.747Z,6.83
2018-11-02T22:29:10.410Z,6.90
2018-11-02T22:31:52.137Z,6.47
2018-11-02T22:34:34.041Z,6.40
2018-11-02T22:37:17.205Z,6.40
2018-11-02T22:39:57.623Z,5.90
2018-11-02T22:42:28.145Z,5.40
2018-11-02T22:45:09.128Z,6.40
2018-11-02T22:47:39.198Z,6.20
2018-11-02T22:50:21.813Z,6.00
2018-11-02T22:53:03.750Z,6.10
2018-11-02T22:55:45.466Z,6.23
2018-11-02T22:58:26.213Z,5.73
2018-11-02T23:01:13.420Z,5.40
2018-11-02T23:03:43.059Z,6.57
2018-11-02T23:06:26.079Z,6.00
2018-11-02T23:09:10.747Z,5.67
2018-11-02T23:11:50.935Z,5.73
2018-11-02T23:14:30.526Z,6.30
2018-11-02T23:17:11.605Z,5.93
2018-11-02T23:19:51.385Z,5.83
2018-11-02T23:22:34.223Z,5.60
2018-11-02T23:25:17.612Z,6.17
2018-11-02T23:28:01.828Z,5.87
2018-11-02T23:30:42.242Z,5.53
2018-11-02T23:33:22.260Z,6.27
2018-11-02T23:36:05.609Z,6.00
2018-11-02T23:38:46.066Z,5.93
2018-11-02T23:41:31.163Z,5.87
2018-11-02T23:44:10.380Z,5.60
2018-11-02T23:46:52.284Z,6.00
2018-11-02T23:49:32.286Z,5.53
2018-11-02T23:52:12.281Z,5.93
2018-11-02T23:57:46.772Z,5.77
